createdAt,value
2018-01-13T00:01:20.705Z,2.90
2018-01-13T00:03:48.444Z,2.90
2018-01-13T00:06:16.216Z,2.90
2018-01-13T00:08:43.973Z,2.90
2018-01-13T00:11:11.726Z,2.80
2018-01-13T00:13:40.237Z,2.80
2018-01-13T00:16:07.984Z,2.80
2018-01-13T00:18:35.737Z,2.80
2018-01-13T00:21:03.626Z,2.80
2018-01-13T00:23:31.354Z,2.70
2018-01-13T00:25:59.066Z,2.70
2018-01-13T00:28:26.912Z,2.60
2018-01-13T00:30:54.754Z,2.60
2018-01-13T00:33:23.472Z,2.50
2018-01-13T00:35:51.294Z,2.50
2018-01-13T00:38:19.017Z,2.40
2018-01-13T00:40:46.736Z,2.40
2018-01-13T00:43:15.197Z,2.40
2018-01-13T00:45:42.892Z,2.30
2018-01-13T00:48:11.356Z,2.40
2018-01-13T00:50:39.949Z,2.40
2018-01-13T00:53:08.560Z,2.40
2018-01-13T00:55:36.294Z,2.40
2018-01-13T00:58:04.882Z,2.50
2018-01-13T01:00:33.458Z,2.50
2018-01-13T01:03:02.037Z,2.40
2018-01-13T01:05:29.756Z,2.40
2018-01-13T01:07:57.472Z,2.40
2018-01-13T01:10:26.036Z,2.40
2018-01-13T01:12:53.876Z,2.40
2018-01-13T01:15:21.758Z,2.50
2018-01-13T01:17:50.067Z,2.50
2018-01-13T01:20:18.652Z,2.50
2018-01-13T01:22:46.358Z,2.50
2018-01-13T01:25:14.126Z,2.50
2018-01-13T01:27:41.856Z,2.50
2018-01-13T01:30:09.563Z,2.50
2018-01-13T01:32:37.290Z,2.50
2018-01-13T01:35:05.024Z,2.50
2018-01-13T01:37:33.601Z,2.60
2018-01-13T01:40:02.163Z,2.60
2018-01-13T01:42:29.875Z,2.50
2018-01-13T01:44:57.578Z,2.60
2018-01-13T01:47:25.299Z,2.60
2018-01-13T01:49:53.002Z,2.50
2018-01-13T01:52:20.780Z,2.50
2018-01-13T01:54:48.545Z,2.50
2018-01-13T01:57:16.242Z,2.50
2018-01-13T01:59:43.954Z,2.50
2018-01-13T02:02:11.718Z,2.40
2018-01-13T02:04:40.314Z,2.50
2018-01-13T02:07:08.080Z,2.40
2018-01-13T02:09:35.922Z,2.50
2018-01-13T02:12:03.617Z,2.40
2018-01-13T02:14:31.367Z,2.50
2018-01-13T02:16:59.111Z,2.50
2018-01-13T02:19:26.839Z,2.50
2018-01-13T02:21:55.312Z,2.50
2018-01-13T02:24:23.796Z,2.50
2018-01-13T02:26:52.248Z,2.50
2018-01-13T02:29:19.918Z,2.50
2018-01-13T02:31:48.230Z,2.50
2018-01-13T02:34:16.056Z,2.50
2018-01-13T02:36:43.931Z,2.50
2018-01-13T02:39:11.660Z,2.50
2018-01-13T02:41:40.171Z,2.50
2018-01-13T02:44:07.879Z,2.50
2018-01-13T02:46:35.659Z,2.50
2018-01-13T02:49:04.132Z,2.50
2018-01-13T02:51:31.833Z,2.50
2018-01-13T02:53:59.587Z,2.50
2018-01-13T02:56:27.400Z,2.50
2018-01-13T02:58:55.101Z,2.60
2018-01-13T03:01:22.920Z,2.60
2018-01-13T03:03:51.447Z,2.60
2018-01-13T03:06:19.217Z,2.50
2018-01-13T03:08:46.938Z,2.50
2018-01-13T03:11:14.723Z,2.50
2018-01-13T03:13:42.596Z,2.40
2018-01-13T03:16:10.306Z,2.40
2018-01-13T03:18:38.004Z,2.40
2018-01-13T03:21:05.846Z,2.30
2018-01-13T03:23:33.606Z,2.30
2018-01-13T03:26:01.440Z,2.30
2018-01-13T03:28:29.135Z,2.30
2018-01-13T03:30:57.279Z,2.20
2018-01-13T03:33:24.984Z,2.20
2018-01-13T03:35:53.414Z,2.20
2018-01-13T03:38:21.134Z,2.20
2018-01-13T03:40:49.598Z,2.20
2018-01-13T03:43:17.316Z,2.10
2018-01-13T03:45:45.102Z,2.20
2018-01-13T03:48:12.834Z,2.10
2018-01-13T03:50:40.582Z,2.10
2018-01-13T03:53:09.138Z,2.00
2018-01-13T03:55:37.800Z,2.00
2018-01-13T03:58:05.652Z,1.90
2018-01-13T04:00:34.558Z,2.00
2018-01-13T04:03:02.256Z,1.90
2018-01-13T04:05:29.965Z,2.00
2018-01-13T04:07:57.949Z,1.90
2018-01-13T04:10:25.738Z,1.90
2018-01-13T04:12:53.444Z,1.80
2018-01-13T04:15:21.273Z,1.80
2018-01-13T04:17:49.000Z,1.70
2018-01-13T04:20:16.675Z,1.70
2018-01-13T04:22:44.366Z,1.60
2018-01-13T04:25:12.184Z,1.60
2018-01-13T04:27:40.838Z,1.40
2018-01-13T04:30:10.066Z,1.40
2018-01-13T04:32:37.881Z,1.30
2018-01-13T04:35:05.622Z,1.30
2018-01-13T04:37:34.245Z,1.30
2018-01-13T04:40:02.764Z,1.20
2018-01-13T04:42:31.266Z,1.10
2018-01-13T04:44:59.057Z,1.10
2018-01-13T04:47:26.822Z,1.10
2018-01-13T04:49:54.584Z,1.00
2018-01-13T04:52:22.324Z,1.00
2018-01-13T04:54:50.071Z,1.00
2018-01-13T04:57:17.948Z,1.00
2018-01-13T04:59:45.859Z,1.00
2018-01-13T05:02:13.630Z,1.00
2018-01-13T05:04:41.526Z,1.00
2018-01-13T05:07:09.320Z,1.00
2018-01-13T05:09:37.067Z,1.00
2018-01-13T05:12:04.800Z,0.90
2018-01-13T05:14:32.567Z,1.00
2018-01-13T05:17:00.320Z,1.00
2018-01-13T05:19:28.062Z,1.00
2018-01-13T05:21:56.675Z,1.00
2018-01-13T05:24:24.462Z,0.90
2018-01-13T05:26:52.203Z,1.00
2018-01-13T05:29:19.966Z,1.00
2018-01-13T05:31:47.737Z,1.00
2018-01-13T05:34:15.546Z,1.10
2018-01-13T05:36:43.432Z,1.10
2018-01-13T05:39:11.346Z,1.10
2018-01-13T05:41:39.208Z,1.10
2018-01-13T05:44:06.963Z,1.10
2018-01-13T05:46:34.717Z,1.10
2018-01-13T05:49:02.512Z,1.10
2018-01-13T05:51:30.260Z,1.10
2018-01-13T05:53:58.006Z,1.10
2018-01-13T05:56:25.916Z,1.20
2018-01-13T05:58:53.640Z,1.10
2018-01-13T06:01:22.277Z,1.10
2018-01-13T06:03:50.078Z,1.10
2018-01-13T06:06:17.864Z,1.20
2018-01-13T06:08:45.854Z,1.20
2018-01-13T06:11:13.666Z,1.20
2018-01-13T06:13:42.032Z,1.20
2018-01-13T06:16:09.772Z,1.20
2018-01-13T06:18:37.528Z,1.20
2018-01-13T06:21:05.298Z,1.20
2018-01-13T06:23:33.030Z,1.20
2018-01-13T06:26:00.773Z,1.20
2018-01-13T06:28:28.527Z,1.20
2018-01-13T06:30:56.225Z,1.20
2018-01-13T06:33:23.960Z,1.20
2018-01-13T06:35:51.810Z,1.30
2018-01-13T06:38:20.382Z,1.30
2018-01-13T06:40:48.142Z,1.20
2018-01-13T06:43:15.872Z,1.30
2018-01-13T06:45:43.701Z,1.30
2018-01-13T06:48:12.316Z,1.30
2018-01-13T06:50:40.102Z,1.30
2018-01-13T06:53:07.808Z,1.30
2018-01-13T06:55:35.696Z,1.30
2018-01-13T06:58:04.162Z,1.40
2018-01-13T07:00:32.660Z,1.30
2018-01-13T07:03:00.511Z,1.30
2018-01-13T07:05:29.035Z,1.40
2018-01-13T07:07:56.805Z,1.30
2018-01-13T07:10:24.666Z,1.40
2018-01-13T07:12:52.477Z,1.30
2018-01-13T07:15:20.305Z,1.30
2018-01-13T07:17:48.123Z,1.40
2018-01-13T07:20:16.594Z,1.40
2018-01-13T07:22:44.364Z,1.30
2018-01-13T07:25:12.923Z,1.40
2018-01-13T07:27:40.721Z,1.40
2018-01-13T07:30:09.177Z,1.30
2018-01-13T07:32:37.022Z,1.30
2018-01-13T07:35:04.750Z,1.30
2018-01-13T07:37:32.466Z,1.30
2018-01-13T07:40:00.164Z,1.30
2018-01-13T07:42:28.006Z,1.30
2018-01-13T07:44:55.757Z,1.30
2018-01-13T07:47:23.465Z,1.30
2018-01-13T07:49:52.147Z,1.30
2018-01-13T07:52:20.994Z,1.30
2018-01-13T07:54:48.716Z,1.20
2018-01-13T07:57:16.466Z,1.30
2018-01-13T07:59:44.212Z,1.30
2018-01-13T08:02:12.738Z,1.30
2018-01-13T08:04:40.507Z,1.20
2018-01-13T08:07:08.342Z,1.30
2018-01-13T08:09:36.108Z,1.20
2018-01-13T08:12:03.918Z,1.30
2018-01-13T08:14:31.637Z,1.30
2018-01-13T08:17:00.241Z,1.30
2018-01-13T08:19:28.615Z,1.30
2018-01-13T08:21:57.050Z,1.30
2018-01-13T08:24:24.800Z,1.30
2018-01-13T08:26:52.608Z,1.40
2018-01-13T08:29:20.366Z,1.40
2018-01-13T08:31:48.853Z,1.40
2018-01-13T08:34:16.580Z,1.30
2018-01-13T08:36:44.257Z,1.40
2018-01-13T08:39:12.887Z,1.40
2018-01-13T08:41:40.588Z,1.30
2018-01-13T08:44:08.568Z,1.40
2018-01-13T08:46:37.095Z,1.40
2018-01-13T08:49:04.945Z,1.40
2018-01-13T08:51:32.794Z,1.40
2018-01-13T08:54:00.613Z,1.40
2018-01-13T08:56:28.400Z,1.40
2018-01-13T08:58:57.765Z,1.40
2018-01-13T09:01:29.558Z,1.40
2018-01-13T09:03:57.349Z,1.40
2018-01-13T09:06:25.985Z,1.40
2018-01-13T09:08:53.722Z,1.40
2018-01-13T09:11:21.560Z,1.40
2018-01-13T09:13:50.055Z,1.40
2018-01-13T09:16:17.830Z,1.40
2018-01-13T09:18:46.362Z,1.40
2018-01-13T09:21:14.236Z,1.40
2018-01-13T09:23:42.063Z,1.50
2018-01-13T09:26:09.769Z,1.40
2018-01-13T09:28:37.521Z,1.50
2018-01-13T09:31:05.255Z,1.50
2018-01-13T09:33:32.963Z,1.40
2018-01-13T09:36:00.694Z,1.40
2018-01-13T09:38:28.521Z,1.50
2018-01-13T09:40:56.292Z,1.50
2018-01-13T09:43:24.046Z,1.50
2018-01-13T09:45:51.849Z,1.50
2018-01-13T09:48:19.614Z,1.40
2018-01-13T09:50:47.325Z,1.40
2018-01-13T09:53:15.054Z,1.40
2018-01-13T09:55:43.582Z,1.50
2018-01-13T09:58:11.422Z,1.40
2018-01-13T10:00:39.235Z,1.50
2018-01-13T10:03:07.095Z,1.50
2018-01-13T10:05:34.850Z,1.50
2018-01-13T10:08:02.660Z,1.50
2018-01-13T10:10:30.369Z,1.50
2018-01-13T10:12:58.249Z,1.50
2018-01-13T10:15:28.069Z,1.50
2018-01-13T10:17:55.841Z,1.50
2018-01-13T10:20:23.573Z,1.50
2018-01-13T10:22:51.944Z,1.50
2018-01-13T10:25:20.398Z,1.60
2018-01-13T10:27:48.164Z,1.50
2018-01-13T10:30:15.932Z,1.60
2018-01-13T10:32:43.629Z,1.60
2018-01-13T10:35:12.201Z,1.60
2018-01-13T10:37:40.840Z,1.60
2018-01-13T10:40:08.574Z,1.60
2018-01-13T10:42:36.354Z,1.80
2018-01-13T10:45:04.154Z,1.80
2018-01-13T10:47:31.961Z,1.80
2018-01-13T10:50:00.458Z,1.80
2018-01-13T10:52:28.177Z,1.80
2018-01-13T10:54:55.956Z,1.70
2018-01-13T10:57:23.689Z,1.70
2018-01-13T10:59:51.426Z,1.80
2018-01-13T11:02:19.339Z,1.80
2018-01-13T11:04:47.314Z,1.70
2018-01-13T11:07:16.230Z,1.70
2018-01-13T11:09:44.002Z,1.60
2018-01-13T11:12:11.804Z,1.70
2018-01-13T11:14:39.501Z,1.60
2018-01-13T11:17:07.304Z,1.60
2018-01-13T11:19:35.153Z,1.60
2018-01-13T11:22:03.666Z,1.50
2018-01-13T11:24:31.404Z,1.50
2018-01-13T11:26:59.142Z,1.50
2018-01-13T11:29:26.903Z,1.40
2018-01-13T11:31:54.636Z,1.40
2018-01-13T11:34:22.411Z,1.40
2018-01-13T11:36:50.155Z,1.40
2018-01-13T11:39:18.065Z,1.40
2018-01-13T11:41:45.789Z,1.50
2018-01-13T11:44:13.564Z,1.50
2018-01-13T11:46:41.293Z,1.50
2018-01-13T11:49:09.070Z,1.40
2018-01-13T11:51:36.873Z,1.40
2018-01-13T11:54:04.553Z,1.40
2018-01-13T11:56:32.956Z,1.40
2018-01-13T11:59:01.094Z,1.40
2018-01-13T12:01:29.229Z,1.40
2018-01-13T12:03:56.968Z,1.50
2018-01-13T12:06:24.778Z,1.50
2018-01-13T12:08:52.646Z,1.50
2018-01-13T12:11:20.345Z,1.40
2018-01-13T12:13:48.187Z,1.40
2018-01-13T12:16:15.973Z,1.40
2018-01-13T12:18:44.451Z,1.50
2018-01-13T12:21:12.984Z,1.40
2018-01-13T12:23:40.708Z,1.40
2018-01-13T12:26:08.531Z,1.40
2018-01-13T12:28:36.411Z,1.40
2018-01-13T12:31:04.109Z,1.40
2018-01-13T12:33:31.815Z,1.40
2018-01-13T12:35:59.558Z,1.40
2018-01-13T12:38:27.299Z,1.40
2018-01-13T12:40:55.141Z,1.40
2018-01-13T12:43:23.748Z,1.40
2018-01-13T12:45:51.615Z,1.40
2018-01-13T12:48:20.169Z,1.50
2018-01-13T12:50:48.037Z,1.40
2018-01-13T12:53:17.129Z,1.50
2018-01-13T12:55:44.956Z,1.50
2018-01-13T12:58:13.686Z,1.50
2018-01-13T13:00:41.529Z,1.50
2018-01-13T13:03:09.272Z,1.40
2018-01-13T13:05:37.044Z,1.40
2018-01-13T13:08:04.774Z,1.30
2018-01-13T13:10:32.470Z,1.30
2018-01-13T13:13:01.001Z,1.30
2018-01-13T13:15:29.489Z,1.20
2018-01-13T13:17:57.991Z,1.30
2018-01-13T13:20:26.405Z,1.20
2018-01-13T13:22:54.461Z,1.30
2018-01-13T13:25:22.150Z,1.30
2018-01-13T13:27:50.169Z,1.30
2018-01-13T13:30:18.231Z,1.30
2018-01-13T13:32:46.730Z,1.30
2018-01-13T13:35:15.017Z,1.20
2018-01-13T13:37:42.788Z,1.30
2018-01-13T13:40:10.529Z,1.30
2018-01-13T13:42:39.277Z,1.30
2018-01-13T13:45:06.987Z,1.30
2018-01-13T13:47:34.729Z,1.30
2018-01-13T13:50:02.597Z,1.30
2018-01-13T13:52:30.369Z,1.30
2018-01-13T13:54:58.152Z,1.30
2018-01-13T13:57:25.872Z,1.30
2018-01-13T13:59:53.583Z,1.30
2018-01-13T14:02:21.325Z,1.30
2018-01-13T14:04:49.065Z,1.30
2018-01-13T14:07:16.842Z,1.30
2018-01-13T14:09:45.331Z,1.30
2018-01-13T14:42:29.856Z,16.00
2018-01-13T14:44:57.441Z,13.20
2018-01-13T14:47:24.995Z,10.40
2018-01-13T14:49:52.527Z,8.40
2018-01-13T14:52:20.056Z,7.30
2018-01-13T14:54:47.569Z,6.00
2018-01-13T14:57:15.079Z,5.10
2018-01-13T15:08:01.309Z,5.10
2018-01-13T15:10:28.526Z,5.10
2018-01-13T15:12:55.833Z,4.70
2018-01-13T15:15:22.921Z,4.30
2018-01-13T15:17:49.999Z,3.90
2018-01-13T15:20:17.103Z,3.60
2018-01-13T15:22:44.188Z,3.30
2018-01-13T15:25:11.260Z,3.10
2018-01-13T15:27:43.309Z,2.80
2018-01-13T15:34:54.355Z,2.40
2018-01-13T16:15:14.595Z,10.30
2018-01-13T16:17:42.137Z,6.90
2018-01-13T16:20:09.687Z,5.40
2018-01-13T16:22:37.981Z,4.20
2018-01-13T16:25:05.508Z,4.10
2018-01-13T16:27:33.010Z,3.90
2018-01-13T16:30:00.549Z,3.60
2018-01-13T16:32:28.836Z,3.20
2018-01-13T16:34:57.108Z,3.10
2018-01-13T16:37:25.427Z,3.00
2018-01-13T16:39:52.961Z,2.90
2018-01-13T16:42:20.493Z,2.90
2018-01-13T16:44:48.803Z,2.80
2018-01-13T16:47:16.340Z,2.70
2018-01-13T16:49:43.879Z,2.70
2018-01-13T16:52:13.026Z,2.60
2018-01-13T16:54:40.574Z,2.60
2018-01-13T16:57:08.140Z,2.60
2018-01-13T16:59:35.689Z,2.60
2018-01-13T17:02:03.229Z,2.50
2018-01-13T17:04:30.763Z,2.50
2018-01-13T17:06:58.319Z,2.50
2018-01-13T17:09:25.893Z,2.50
2018-01-13T17:11:53.455Z,2.50
2018-01-13T17:14:21.808Z,2.50
2018-01-13T17:16:49.357Z,2.40
2018-01-13T17:19:16.921Z,2.50
2018-01-13T17:21:44.478Z,2.50
2018-01-13T17:24:13.248Z,2.50
2018-01-13T17:26:40.771Z,2.50
2018-01-13T17:29:09.863Z,2.50
2018-01-13T17:31:38.185Z,2.40
2018-01-13T17:34:06.499Z,2.40
2018-01-13T17:36:34.829Z,2.40
2018-01-13T17:39:02.362Z,2.40
2018-01-13T17:41:30.749Z,2.40
2018-01-13T17:43:58.305Z,2.40
2018-01-13T17:46:25.849Z,2.40
2018-01-13T17:48:53.451Z,2.40
2018-01-13T17:51:20.989Z,2.40
2018-01-13T17:53:48.612Z,2.40
2018-01-13T17:56:16.181Z,2.40
2018-01-13T17:58:44.490Z,2.40
2018-01-13T18:01:12.089Z,2.30
2018-01-13T18:03:39.631Z,2.40
2018-01-13T18:06:07.167Z,2.40
2018-01-13T18:08:34.763Z,2.40
2018-01-13T18:11:02.311Z,2.40
2018-01-13T18:13:29.846Z,2.40
2018-01-13T18:15:58.235Z,2.40
2018-01-13T18:18:25.804Z,2.40
2018-01-13T18:20:53.345Z,2.30
2018-01-13T18:23:20.895Z,2.40
2018-01-13T18:25:48.436Z,2.40
2018-01-13T18:28:15.967Z,2.30
2018-01-13T18:30:43.536Z,2.30
2018-01-13T18:33:11.085Z,2.30
2018-01-13T18:35:38.653Z,2.30
2018-01-13T18:38:06.544Z,2.30
2018-01-13T18:40:34.078Z,2.30
2018-01-13T18:43:01.641Z,2.30
2018-01-13T18:45:29.195Z,2.30
2018-01-13T18:47:56.739Z,2.30
2018-01-13T18:50:24.284Z,2.30
2018-01-13T18:52:51.817Z,2.30
2018-01-13T18:55:19.392Z,2.30
2018-01-13T18:57:46.923Z,2.30
2018-01-13T19:00:15.304Z,2.30
2018-01-13T19:02:42.847Z,2.20
2018-01-13T19:05:10.421Z,2.30
2018-01-13T19:07:38.780Z,2.20
2018-01-13T19:10:07.139Z,2.20
2018-01-13T19:12:34.673Z,2.20
2018-01-13T19:15:02.260Z,2.20
2018-01-13T19:17:29.836Z,2.30
2018-01-13T19:19:57.453Z,2.20
2018-01-13T19:22:25.062Z,2.20
2018-01-13T19:24:52.639Z,2.20
2018-01-13T19:27:20.203Z,2.20
2018-01-13T19:29:47.755Z,2.20
2018-01-13T19:32:16.112Z,2.20
2018-01-13T19:34:43.687Z,2.10
2018-01-13T19:37:12.015Z,2.20
2018-01-13T19:39:39.616Z,2.20
2018-01-13T19:42:07.961Z,2.20
2018-01-13T19:44:35.585Z,2.20
2018-01-13T19:47:03.153Z,2.20
2018-01-13T19:49:30.684Z,2.20
2018-01-13T19:51:59.009Z,2.20
2018-01-13T19:54:26.572Z,2.20
2018-01-13T19:56:54.117Z,2.20
2018-01-13T19:59:22.446Z,2.20
2018-01-13T20:01:50.028Z,2.20
2018-01-13T20:04:18.413Z,2.20
2018-01-13T20:06:45.965Z,2.10
2018-01-13T20:09:13.496Z,2.20
2018-01-13T20:11:41.055Z,2.10
2018-01-13T20:14:08.593Z,2.10
2018-01-13T20:16:36.162Z,2.10
2018-01-13T20:19:03.712Z,2.10
2018-01-13T20:21:31.301Z,2.10
2018-01-13T20:23:58.876Z,2.10
2018-01-13T20:26:26.425Z,2.10
2018-01-13T20:28:55.542Z,2.10
2018-01-13T20:31:23.088Z,2.00
2018-01-13T20:33:50.660Z,2.10
2018-01-13T20:36:18.227Z,2.10
2018-01-13T20:38:45.782Z,2.10
2018-01-13T20:41:13.376Z,2.10
2018-01-13T20:43:42.162Z,2.10
2018-01-13T20:46:09.715Z,2.00
2018-01-13T20:48:37.248Z,2.10
2018-01-13T20:51:05.870Z,2.10
2018-01-13T20:53:33.469Z,2.00
2018-01-13T20:56:01.019Z,2.10
2018-01-13T20:58:28.683Z,2.10
2018-01-13T21:00:56.221Z,2.00
2018-01-13T21:03:23.783Z,2.00
2018-01-13T21:05:51.345Z,2.00
2018-01-13T21:08:18.904Z,2.00
2018-01-13T21:10:46.473Z,2.00
2018-01-13T21:13:14.042Z,2.00
2018-01-13T21:15:41.618Z,2.10
2018-01-13T21:18:09.932Z,2.00
2018-01-13T21:20:37.522Z,2.00
2018-01-13T21:23:05.048Z,2.00
2018-01-13T21:25:32.586Z,2.00
2018-01-13T21:28:00.926Z,2.00
2018-01-13T21:30:28.460Z,2.00
2018-01-13T21:32:56.833Z,2.00
2018-01-13T21:35:24.402Z,2.00
2018-01-13T21:37:51.928Z,2.00
2018-01-13T21:40:19.458Z,2.00
2018-01-13T21:42:47.053Z,2.00
2018-01-13T21:45:15.844Z,2.00
2018-01-13T21:47:43.400Z,2.00
2018-01-13T21:50:11.007Z,2.00
2018-01-13T21:52:39.712Z,2.00
2018-01-13T21:55:07.227Z,2.00
2018-01-13T21:57:34.811Z,2.00
2018-01-13T22:00:02.338Z,2.00
2018-01-13T22:02:29.882Z,2.00
2018-01-13T22:04:57.435Z,2.00
2018-01-13T22:07:24.988Z,1.90
2018-01-13T22:09:52.542Z,2.00
2018-01-13T22:12:20.877Z,2.00
2018-01-13T22:14:49.177Z,2.00
2018-01-13T22:17:16.747Z,1.90
2018-01-13T22:19:44.366Z,2.00
2018-01-13T22:22:11.896Z,2.00
2018-01-13T22:24:39.430Z,2.00
2018-01-13T22:27:07.752Z,2.00
2018-01-13T22:29:35.283Z,1.90
2018-01-13T22:32:02.879Z,2.00
2018-01-13T22:34:30.458Z,2.00
2018-01-13T22:36:58.041Z,2.00
2018-01-13T22:39:25.570Z,2.00
2018-01-13T22:41:53.135Z,2.00
2018-01-13T22:44:20.691Z,2.00
2018-01-13T22:46:48.221Z,2.00
2018-01-13T22:49:15.830Z,1.90
2018-01-13T22:51:43.363Z,1.90
2018-01-13T22:54:11.690Z,1.90
2018-01-13T22:56:40.031Z,1.90
2018-01-13T22:59:07.563Z,1.80
2018-01-13T23:01:35.088Z,1.90
2018-01-13T23:04:03.411Z,1.90
2018-01-13T23:06:30.949Z,1.80
2018-01-13T23:08:58.507Z,1.80
2018-01-13T23:11:27.104Z,1.80
2018-01-13T23:13:54.644Z,1.80
2018-01-13T23:16:22.194Z,1.80
2018-01-13T23:18:50.588Z,1.80
2018-01-13T23:21:18.147Z,1.80
2018-01-13T23:23:45.995Z,1.80
2018-01-13T23:26:13.559Z,1.80
2018-01-13T23:28:41.095Z,1.70
2018-01-13T23:31:08.689Z,1.70
2018-01-13T23:33:37.008Z,1.80
2018-01-13T23:36:04.549Z,1.70
2018-01-13T23:38:32.130Z,1.70
2018-01-13T23:40:59.783Z,1.70
2018-01-13T23:43:27.351Z,1.70
2018-01-13T23:45:54.945Z,1.70
2018-01-13T23:48:22.545Z,1.70
2018-01-13T23:50:50.095Z,1.70
2018-01-13T23:53:17.627Z,1.70
2018-01-13T23:55:45.359Z,1.70
2018-01-13T23:58:12.909Z,1.70
